createdAt,value
2023-02-14T00:00:32.120Z,12.90
2023-02-14T00:09:17.410Z,11.60
2023-02-14T00:17:40.336Z,16.00
2023-02-14T00:26:03.390Z,15.20
2023-02-14T00:34:27.598Z,11.70
2023-02-14T00:42:50.735Z,11.00
2023-02-14T00:51:14.665Z,14.30
2023-02-14T00:59:37.703Z,11.10
2023-02-14T01:08:00.824Z,13.00
2023-02-14T01:16:26.168Z,10.20
2023-02-14T01:24:51.181Z,16.20
2023-02-14T01:33:14.222Z,10.60
2023-02-14T01:41:39.709Z,11.40
2023-02-14T01:50:12.505Z,8.90
2023-02-14T01:58:39.681Z,12.70
2023-02-14T02:07:07.698Z,12.40
2023-02-14T02:15:35.292Z,12.20
2023-02-14T02:24:39.498Z,15.50
2023-02-14T02:33:33.118Z,11.00
2023-02-14T02:42:18.737Z,10.70
2023-02-14T02:51:05.354Z,14.60
2023-02-14T02:59:34.902Z,14.50
2023-02-14T03:07:57.987Z,18.00
2023-02-14T03:16:34.866Z,10.90
2023-02-14T03:25:10.290Z,13.40
2023-02-14T03:33:51.009Z,19.80
2023-02-14T03:42:23.845Z,11.50
2023-02-14T03:50:50.351Z,13.70
2023-02-14T03:59:19.416Z,14.90
2023-02-14T04:07:51.658Z,13.90
2023-02-14T04:16:14.832Z,20.30
2023-02-14T04:24:38.311Z,15.10
2023-02-14T04:33:01.210Z,15.80
2023-02-14T04:41:24.121Z,15.20
2023-02-14T04:49:48.525Z,11.40
2023-02-14T04:58:11.474Z,18.80
2023-02-14T05:06:34.540Z,23.90
2023-02-14T05:14:58.084Z,15.60
2023-02-14T05:23:21.782Z,20.20
2023-02-14T05:31:44.809Z,17.50
2023-02-14T05:40:09.249Z,23.40
2023-02-14T05:48:32.820Z,18.80
2023-02-14T05:56:55.866Z,29.30
2023-02-14T06:05:20.362Z,32.50
2023-02-14T06:13:43.310Z,19.90
2023-02-14T06:22:06.258Z,16.20
2023-02-14T06:30:29.344Z,22.50
2023-02-14T06:38:52.532Z,15.60
2023-02-14T06:47:16.759Z,16.80
2023-02-14T06:55:43.585Z,21.00
2023-02-14T07:04:09.049Z,13.70
2023-02-14T07:12:32.142Z,21.20
2023-02-14T07:20:55.774Z,19.60
2023-02-14T07:29:18.658Z,19.70
2023-02-14T07:37:41.676Z,14.10
2023-02-14T07:46:04.908Z,20.60
2023-02-14T07:54:28.057Z,21.40
2023-02-14T08:02:51.202Z,20.10
2023-02-14T08:11:37.344Z,17.20
2023-02-14T08:20:00.341Z,15.90
2023-02-14T08:28:23.837Z,21.50
2023-02-14T08:36:47.622Z,20.90
2023-02-14T08:45:10.660Z,25.20
2023-02-14T08:53:33.644Z,25.40
2023-02-14T09:01:56.971Z,19.70
2023-02-14T09:10:20.081Z,17.10
2023-02-14T09:18:43.888Z,24.60
2023-02-14T09:27:07.682Z,28.60
2023-02-14T09:35:49.766Z,24.30
2023-02-14T09:44:26.937Z,23.30
2023-02-14T09:52:52.992Z,27.00
2023-02-14T10:01:23.594Z,25.60
2023-02-14T10:10:01.114Z,23.90
2023-02-14T10:18:46.221Z,25.50
2023-02-14T10:27:29.610Z,24.00
2023-02-14T10:36:05.838Z,26.20
2023-02-14T10:44:46.190Z,29.10
2023-02-14T10:53:42.790Z,86.00
2023-02-14T11:02:08.957Z,25.20
2023-02-14T11:10:36.158Z,32.90
2023-02-14T11:19:16.826Z,31.90
2023-02-14T11:27:50.472Z,29.20
2023-02-14T11:36:17.634Z,36.70
2023-02-14T11:44:55.985Z,26.40
2023-02-14T11:53:25.693Z,23.70
2023-02-14T12:01:48.887Z,29.90
2023-02-14T12:10:18.051Z,33.30
2023-02-14T12:18:59.496Z,33.20
2023-02-14T12:27:37.851Z,32.80
2023-02-14T12:36:08.081Z,43.40
2023-02-14T12:44:56.237Z,33.60
2023-02-14T12:53:28.156Z,34.20
2023-02-14T13:02:34.084Z,32.10
2023-02-14T13:11:07.457Z,32.70
2023-02-14T13:20:06.115Z,66.10
2023-02-14T13:28:31.668Z,30.80
2023-02-14T13:36:58.174Z,32.20
2023-02-14T13:45:30.426Z,40.90
2023-02-14T13:53:53.629Z,45.00
2023-02-14T14:02:30.218Z,38.40
2023-02-14T14:11:15.099Z,47.20
2023-02-14T14:19:39.946Z,44.40
2023-02-14T14:28:18.622Z,50.40
2023-02-14T14:36:41.694Z,54.80
2023-02-14T14:45:09.380Z,41.70
2023-02-14T14:53:48.942Z,37.60
2023-02-14T15:02:26.567Z,48.60
2023-02-14T15:10:58.496Z,61.40
2023-02-14T15:19:34.908Z,54.00
2023-02-14T15:27:57.861Z,41.90
2023-02-14T15:36:27.595Z,36.30
2023-02-14T15:44:50.602Z,32.90
2023-02-14T15:53:36.377Z,48.10
2023-02-14T16:02:28.080Z,46.50
2023-02-14T16:11:14.503Z,40.80
2023-02-14T16:19:46.604Z,39.70
2023-02-14T16:28:09.554Z,41.90
2023-02-14T16:36:34.459Z,43.30
2023-02-14T16:44:58.360Z,45.40
2023-02-14T16:53:27.312Z,39.90
2023-02-14T17:01:50.792Z,44.10
2023-02-14T17:10:19.631Z,34.30
2023-02-14T17:18:47.574Z,42.40
2023-02-14T17:27:10.779Z,48.30
2023-02-14T17:35:35.682Z,41.00
2023-02-14T17:44:02.089Z,45.60
2023-02-14T17:52:25.898Z,51.90
2023-02-14T18:00:49.165Z,48.10
2023-02-14T18:09:12.098Z,49.50
2023-02-14T18:17:35.083Z,48.20
2023-02-14T18:26:04.678Z,52.50
2023-02-14T18:34:28.364Z,48.10
2023-02-14T18:42:51.398Z,59.10
2023-02-14T18:51:17.321Z,54.40
2023-02-14T18:59:40.489Z,59.30
2023-02-14T19:08:03.840Z,49.80
2023-02-14T19:16:33.478Z,50.50
2023-02-14T19:24:56.564Z,58.60
2023-02-14T19:33:19.493Z,108.60
2023-02-14T19:41:42.805Z,55.10
2023-02-14T19:50:07.477Z,53.30
2023-02-14T19:58:30.350Z,41.60
2023-02-14T20:06:55.310Z,71.30
2023-02-14T20:15:18.803Z,59.60
2023-02-14T20:23:41.745Z,58.30
2023-02-14T20:32:06.077Z,60.20
2023-02-14T20:40:29.467Z,57.50
2023-02-14T20:48:54.344Z,72.50
2023-02-14T20:57:17.261Z,58.10
2023-02-14T21:05:40.733Z,63.50
2023-02-14T21:14:03.689Z,57.30
2023-02-14T21:22:26.699Z,61.30
2023-02-14T21:30:49.664Z,60.30
2023-02-14T21:39:13.335Z,55.60
2023-02-14T21:47:37.850Z,66.70
2023-02-14T21:56:11.952Z,59.60
2023-02-14T22:04:35.558Z,50.80
2023-02-14T22:12:58.435Z,51.70
2023-02-14T22:21:26.803Z,48.00
2023-02-14T22:29:50.267Z,49.10
2023-02-14T22:38:13.170Z,56.30
2023-02-14T22:46:37.070Z,37.50
2023-02-14T22:55:00.170Z,54.60
2023-02-14T23:03:23.186Z,65.80
2023-02-14T23:11:47.088Z,54.40
2023-02-14T23:20:29.314Z,62.10
2023-02-14T23:28:52.415Z,51.30
2023-02-14T23:37:15.645Z,49.30
2023-02-14T23:45:40.101Z,55.30
2023-02-14T23:54:03.678Z,48.80
